Time;durP1;ratioP1;P1;durP2;ratioP2;P2;SDS_P1;SDS_P2;PMS_P1;PMS_P2;Temp;Humidity;BMP_temperature;BMP_pressure;BME280_temperature;BME280_humidity;BME280_pressure;Samples;Min_cycle;Max_cycle;Signal;HPM_P1;HPM_P2
2022/06/29 00:00:24;;;;;;;1.77;1.70;;;27.30;57.80;;;;;;5047396;28;20161;-60
2022/06/29 00:02:51;;;;;;;1.98;1.80;;;27.30;57.80;;;;;;5046523;28;20075;-60
2022/06/29 00:05:22;;;;;;;1.50;1.50;;;27.30;57.70;;;;;;5045835;28;20517;-60
2022/06/29 00:07:50;;;;;;;1.63;1.52;;;27.30;57.70;;;;;;5045911;28;20049;-59
2022/06/29 00:10:18;;;;;;;1.75;1.67;;;27.30;57.80;;;;;;5047182;28;20068;-60
2022/06/29 00:12:47;;;;;;;1.50;1.50;;;27.30;57.70;;;;;;5047090;28;20052;-60
2022/06/29 00:15:15;;;;;;;1.80;1.70;;;27.30;57.70;;;;;;5045781;28;20045;-60
2022/06/29 00:17:43;;;;;;;1.70;1.60;;;27.30;57.70;;;;;;5047488;28;20041;-60
2022/06/29 00:20:12;;;;;;;1.80;1.70;;;27.30;57.70;;;;;;5047299;28;20088;-60
2022/06/29 00:22:40;;;;;;;2.00;1.90;;;27.30;57.80;;;;;;5047300;28;20049;-60
2022/06/29 00:25:09;;;;;;;1.92;1.83;;;27.30;57.80;;;;;;5046547;28;20452;-60
2022/06/29 00:27:38;;;;;;;1.92;1.80;;;27.30;57.80;;;;;;5047178;28;20053;-60
2022/06/29 00:30:06;;;;;;;1.55;1.52;;;27.30;57.80;;;;;;5046988;28;20091;-60
2022/06/29 00:32:33;;;;;;;2.00;1.90;;;27.20;57.80;;;;;;5047124;28;20049;-60
2022/06/29 00:35:01;;;;;;;1.83;1.73;;;27.20;57.80;;;;;;5047236;28;20045;-60
2022/06/29 00:37:28;;;;;;;1.98;1.88;;;27.20;57.80;;;;;;5047182;28;20311;-60
2022/06/29 00:39:57;;;;;;;1.50;1.50;;;27.20;57.80;;;;;;5046929;28;20048;-60
2022/06/29 00:42:24;;;;;;;1.63;1.63;;;27.20;57.80;;;;;;5045321;28;20463;-60
2022/06/29 00:44:51;;;;;;;1.88;1.77;;;27.20;57.80;;;;;;5047112;28;20127;-60
2022/06/29 00:47:18;;;;;;;1.77;1.67;;;27.20;57.80;;;;;;5049342;28;20310;-60
2022/06/29 00:49:45;;;;;;;1.98;1.88;;;27.20;57.80;;;;;;5050478;28;20049;-60
2022/06/29 00:52:15;;;;;;;1.40;1.40;;;27.20;57.80;;;;;;5050490;28;20559;-60
2022/06/29 00:54:57;;;;;;;1.65;1.60;;;27.20;57.80;;;;;;5049525;28;20045;-60
2022/06/29 00:57:27;;;;;;;1.67;1.67;;;27.20;57.80;;;;;;5049285;28;20045;-60
2022/06/29 00:59:57;;;;;;;1.58;1.52;;;27.20;57.80;;;;;;5050331;28;20056;-60
2022/06/29 01:02:29;;;;;;;2.03;1.92;;;27.20;57.80;;;;;;5032831;28;20045;-60
2022/06/29 01:04:56;;;;;;;1.80;1.70;;;27.20;57.80;;;;;;5050374;28;20504;-60
2022/06/29 01:07:26;;;;;;;1.45;1.45;;;27.20;57.80;;;;;;5050061;28;20071;-60
2022/06/29 01:09:53;;;;;;;1.45;1.45;;;27.20;57.80;;;;;;5050341;28;20202;-60
2022/06/29 01:12:21;;;;;;;1.73;1.63;;;27.20;57.80;;;;;;5049691;28;20270;-60
2022/06/29 01:14:50;;;;;;;1.80;1.70;;;27.20;57.90;;;;;;5049738;28;20482;-60
2022/06/29 01:17:20;;;;;;;1.50;1.50;;;27.10;57.80;;;;;;5049848;28;20044;-60
2022/06/29 01:19:47;;;;;;;1.70;1.60;;;27.20;57.90;;;;;;5048728;28;20045;-60
2022/06/29 01:22:16;;;;;;;1.95;1.85;;;27.10;57.80;;;;;;5049960;28;20282;-60
2022/06/29 01:24:44;;;;;;;1.97;1.87;;;27.20;57.90;;;;;;5048643;28;20045;-60
2022/06/29 01:27:13;;;;;;;1.60;1.52;;;27.10;57.80;;;;;;5049767;28;20044;-60
2022/06/29 01:29:40;;;;;;;1.55;1.52;;;27.10;57.80;;;;;;5048833;28;20057;-60
2022/06/29 01:32:08;;;;;;;1.58;1.58;;;27.10;57.90;;;;;;5048336;28;20386;-60
2022/06/29 01:34:37;;;;;;;1.70;1.70;;;27.10;57.90;;;;;;5050048;28;20481;-60
2022/06/29 01:37:05;;;;;;;1.70;1.70;;;27.10;57.90;;;;;;5049427;28;20049;-60
2022/06/29 01:39:33;;;;;;;1.60;1.60;;;27.10;57.90;;;;;;5049527;28;20045;-60
2022/06/29 01:42:00;;;;;;;1.40;1.40;;;27.10;57.90;;;;;;5049431;28;20541;-60
2022/06/29 01:44:28;;;;;;;1.55;1.52;;;27.10;57.90;;;;;;5049619;28;20119;-60
2022/06/29 01:46:56;;;;;;;1.33;1.33;;;27.10;57.90;;;;;;5049121;28;20080;-60
2022/06/29 01:49:23;;;;;;;1.98;1.88;;;27.10;57.90;;;;;;5049325;28;20409;-60
2022/06/29 01:51:50;;;;;;;1.65;1.65;;;27.10;57.90;;;;;;5047914;28;20110;-60
2022/06/29 01:54:17;;;;;;;1.65;1.65;;;27.10;57.90;;;;;;5048129;28;20472;-60
2022/06/29 01:56:44;;;;;;;1.50;1.50;;;27.10;58.00;;;;;;5047762;28;20049;-60
2022/06/29 01:59:12;;;;;;;1.50;1.50;;;27.10;58.00;;;;;;5048311;28;20048;-60
2022/06/29 02:01:39;;;;;;;2.00;1.90;;;27.10;58.00;;;;;;5047692;28;20076;-60
2022/06/29 02:04:07;;;;;;;2.08;1.90;;;27.10;58.00;;;;;;5049158;28;20072;-60
2022/06/29 02:06:34;;;;;;;1.70;1.60;;;27.10;58.00;;;;;;5048849;28;20127;-60
2022/06/29 02:09:01;;;;;;;1.58;1.52;;;27.10;58.00;;;;;;5049072;28;20048;-60
2022/06/29 02:11:29;;;;;;;1.38;1.38;;;27.10;58.00;;;;;;5049110;28;20049;-60
2022/06/29 02:13:56;;;;;;;1.52;1.50;;;27.00;57.90;;;;;;5049002;28;20501;-60
2022/06/29 02:16:23;;;;;;;1.73;1.70;;;27.00;57.90;;;;;;5049099;28;20452;-60
2022/06/29 02:18:51;;;;;;;1.50;1.50;;;27.10;58.00;;;;;;5047385;28;20048;-60
2022/06/29 02:21:18;;;;;;;1.40;1.40;;;27.10;58.00;;;;;;5048437;28;20049;-60
2022/06/29 02:23:46;;;;;;;1.48;1.48;;;27.00;57.90;;;;;;5048523;28;20045;-60
2022/06/29 02:26:14;;;;;;;1.77;1.67;;;27.00;57.90;;;;;;5048412;28;20049;-60
2022/06/29 02:28:41;;;;;;;1.25;1.25;;;27.00;57.90;;;;;;5047468;28;20057;-60
2022/06/29 02:36:43;;;;;;;1.40;1.38;;;27.00;57.90;;;;;;5047974;28;20103;-60
2022/06/29 02:39:10;;;;;;;3.10;1.60;;;27.00;57.90;;;;;;5048758;28;20103;-60
2022/06/29 02:41:37;;;;;;;1.60;1.60;;;27.00;57.90;;;;;;5048130;28;20045;-60
2022/06/29 02:44:05;;;;;;;1.67;1.58;;;27.00;57.90;;;;;;5048960;28;20193;-60
2022/06/29 02:46:33;;;;;;;1.80;1.70;;;27.00;57.90;;;;;;5048636;28;20049;-60
2022/06/29 02:49:00;;;;;;;1.98;1.50;;;27.00;57.90;;;;;;5048235;28;20053;-60
2022/06/29 02:51:27;;;;;;;1.50;1.50;;;27.00;57.90;;;;;;5048091;28;20084;-60
2022/06/29 02:53:55;;;;;;;1.80;1.70;;;27.00;57.90;;;;;;5048196;28;20107;-60
2022/06/29 02:56:22;;;;;;;1.30;1.30;;;27.00;58.00;;;;;;5048121;28;20076;-60
2022/06/29 02:58:50;;;;;;;1.50;1.40;;;27.00;57.90;;;;;;5048157;28;20099;-60
2022/06/29 03:01:17;;;;;;;1.90;1.80;;;27.00;58.00;;;;;;5048133;28;20041;-60
2022/06/29 03:03:45;;;;;;;1.60;1.60;;;27.00;58.00;;;;;;5048219;28;20053;-60
2022/06/29 03:06:12;;;;;;;1.83;1.73;;;27.00;58.00;;;;;;5048258;28;20448;-60
2022/06/29 03:08:40;;;;;;;1.50;1.50;;;27.00;58.00;;;;;;5047846;28;20049;-60
2022/06/29 03:11:07;;;;;;;1.40;1.40;;;27.00;58.00;;;;;;5047799;28;20068;-60
2022/06/29 03:13:34;;;;;;;1.85;1.75;;;27.00;58.00;;;;;;5047570;28;20083;-60
2022/06/29 03:16:01;;;;;;;1.58;1.48;;;27.00;58.00;;;;;;5047684;28;20059;-59
2022/06/29 03:18:29;;;;;;;1.40;1.40;;;27.00;57.90;;;;;;5047711;28;20425;-60
2022/06/29 03:20:57;;;;;;;1.60;1.60;;;27.00;57.90;;;;;;5047965;28;20122;-60
2022/06/29 03:23:24;;;;;;;1.80;1.70;;;27.00;57.90;;;;;;5046452;28;20087;-60
2022/06/29 03:25:51;;;;;;;1.73;1.63;;;27.00;57.90;;;;;;5047647;28;20052;-60
2022/06/29 03:28:19;;;;;;;1.60;1.50;;;27.00;58.40;;;;;;5047206;28;20045;-60
2022/06/29 03:30:46;;;;;;;1.50;1.50;;;27.00;57.90;;;;;;5047473;28;20513;-60
2022/06/29 03:33:14;;;;;;;1.58;1.58;;;27.00;57.90;;;;;;5047517;28;20053;-60
2022/06/29 03:35:41;;;;;;;1.65;1.60;;;27.00;57.90;;;;;;5046986;28;20045;-60
2022/06/29 03:38:08;;;;;;;1.80;1.70;;;27.00;57.80;;;;;;5043941;28;20099;-60
2022/06/29 03:40:36;;;;;;;1.77;1.75;;;27.00;57.80;;;;;;5045656;28;20095;-60
2022/06/29 03:43:03;;;;;;;1.65;1.55;;;27.00;57.70;;;;;;5047529;28;20126;-60
2022/06/29 03:45:31;;;;;;;1.80;1.73;;;27.10;57.80;;;;;;5048035;28;20230;-59
2022/06/29 03:47:58;;;;;;;1.42;1.42;;;27.10;57.60;;;;;;5047351;28;20048;-59
2022/06/29 03:50:25;;;;;;;1.65;1.55;;;27.10;57.60;;;;;;5047299;28;20156;-60
2022/06/29 03:52:52;;;;;;;1.42;1.40;;;27.10;57.60;;;;;;5047192;28;20076;-60
2022/06/29 03:55:19;;;;;;;1.65;1.55;;;27.20;57.50;;;;;;5047411;28;20095;-60
2022/06/29 03:57:47;;;;;;;1.95;1.85;;;27.20;57.40;;;;;;5047346;28;20084;-60
2022/06/29 04:00:15;;;;;;;1.58;1.48;;;27.20;57.30;;;;;;5047180;28;20528;-60
2022/06/29 04:02:42;;;;;;;1.73;1.63;;;27.20;57.20;;;;;;5046787;28;20572;-60
2022/06/29 04:05:10;;;;;;;1.48;1.48;;;27.30;57.10;;;;;;5047162;28;20053;-60
2022/06/29 04:07:37;;;;;;;1.27;1.27;;;27.30;57.00;;;;;;5047090;28;20477;-60
2022/06/29 04:10:05;;;;;;;1.58;1.58;;;27.30;56.90;;;;;;5047058;28;20563;-60
2022/06/29 04:12:34;;;;;;;1.40;1.40;;;27.40;56.80;;;;;;5047442;28;20460;-60
2022/06/29 04:15:03;;;;;;;1.95;1.85;;;27.40;56.70;;;;;;5047061;28;20060;-60
2022/06/29 04:17:31;;;;;;;1.25;1.25;;;27.40;56.60;;;;;;5046852;28;20049;-60
2022/06/29 04:19:58;;;;;;;1.60;1.50;;;27.50;56.60;;;;;;5050460;28;20493;-60
2022/06/29 04:22:25;;;;;;;1.65;1.60;;;27.50;56.50;;;;;;5050583;28;20452;-60
2022/06/29 04:24:52;;;;;;;1.70;1.50;;;27.50;56.40;;;;;;5050876;28;20115;-60
2022/06/29 04:27:20;;;;;;;1.60;1.50;;;27.60;56.40;;;;;;5050498;28;20106;-63
2022/06/29 04:29:47;;;;;;;1.70;1.60;;;27.60;56.30;;;;;;5049648;28;20103;-60
2022/06/29 04:32:15;;;;;;;1.42;1.42;;;27.60;56.20;;;;;;5050697;28;20563;-60
2022/06/29 04:34:43;;;;;;;2.70;1.83;;;27.60;56.10;;;;;;5050504;28;20048;-60
2022/06/29 04:37:10;;;;;;;1.30;1.30;;;27.70;56.10;;;;;;5043344;28;20183;-60
2022/06/29 04:39:37;;;;;;;1.60;1.60;;;27.70;56.10;;;;;;5049620;28;20398;-60
2022/06/29 04:42:04;;;;;;;1.80;1.70;;;27.70;56.10;;;;;;5049346;28;20110;-60
2022/06/29 04:44:33;;;;;;;1.67;1.67;;;27.70;56.00;;;;;;5048072;28;20118;-60
2022/06/29 04:47:00;;;;;;;1.80;1.70;;;27.70;55.90;;;;;;5047876;28;20069;-60
2022/06/29 04:49:27;;;;;;;1.85;1.75;;;27.80;56.00;;;;;;5049536;28;20054;-60
2022/06/29 04:51:55;;;;;;;1.70;1.70;;;27.80;55.90;;;;;;5050122;28;20044;-60
2022/06/29 04:54:22;;;;;;;1.75;1.65;;;27.80;55.90;;;;;;5049988;28;20057;-60
2022/06/29 04:56:51;;;;;;;1.92;1.83;;;27.80;55.90;;;;;;5047764;28;20118;-60
2022/06/29 04:59:19;;;;;;;1.90;1.75;;;27.80;55.80;;;;;;5048536;28;20045;-60
2022/06/29 05:01:48;;;;;;;1.80;1.70;;;27.80;55.80;;;;;;5040484;28;20052;-60
2022/06/29 05:04:15;;;;;;;1.50;1.40;;;27.80;55.80;;;;;;5049290;28;20065;-60
2022/06/29 05:06:43;;;;;;;1.88;1.77;;;27.80;55.70;;;;;;5046165;28;20073;-60
2022/06/29 05:09:11;;;;;;;2.97;1.63;;;27.70;55.90;;;;;;5048199;28;20049;-60
2022/06/29 05:11:38;;;;;;;2.10;1.90;;;27.60;56.30;;;;;;5049084;28;20444;-60
2022/06/29 05:14:05;;;;;;;2.05;1.95;;;27.40;56.70;;;;;;5044737;28;20083;-60
2022/06/29 05:16:32;;;;;;;2.38;2.28;;;27.20;57.20;;;;;;5049748;28;20835;-59
2022/06/29 05:19:00;;;;;;;3.20;2.25;;;27.00;57.40;;;;;;5043603;28;20047;-60
2022/06/29 05:21:28;;;;;;;2.78;2.63;;;26.70;57.00;;;;;;5022750;28;20042;-61
2022/06/29 05:23:55;;;;;;;3.00;2.80;;;26.50;57.60;;;;;;5039383;28;20486;-60
2022/06/29 05:26:24;;;;;;;2.67;2.47;;;26.30;58.10;;;;;;5074498;28;20111;-61
2022/06/29 05:28:51;;;;;;;2.85;2.65;;;26.00;58.20;;;;;;5035685;28;20115;-62
2022/06/29 05:31:19;;;;;;;3.20;3.00;;;25.90;58.10;;;;;;5040527;28;20485;-62
2022/06/29 05:33:47;;;;;;;2.80;2.50;;;25.70;58.20;;;;;;5041051;28;20095;-61
2022/06/29 05:36:14;;;;;;;2.40;2.30;;;25.40;58.20;;;;;;5034554;28;20059;-62
2022/06/29 05:38:41;;;;;;;3.17;2.80;;;25.30;58.40;;;;;;5040984;28;20041;-62
2022/06/29 05:41:09;;;;;;;4.32;3.20;;;25.20;58.30;;;;;;5039380;28;20053;-62
2022/06/29 05:43:36;;;;;;;3.15;2.92;;;25.00;58.20;;;;;;5058023;28;20037;-61
2022/06/29 05:46:03;;;;;;;3.17;2.97;;;24.90;58.30;;;;;;5042869;28;20080;-62
2022/06/29 05:48:31;;;;;;;3.78;3.05;;;24.70;58.20;;;;;;5036776;28;20048;-61
2022/06/29 05:50:58;;;;;;;3.50;3.17;;;24.50;58.40;;;;;;5039958;28;20041;-61
2022/06/29 05:53:25;;;;;;;3.40;3.17;;;24.40;58.40;;;;;;5038406;28;20044;-63
2022/06/29 05:55:52;;;;;;;3.38;3.15;;;24.30;58.60;;;;;;5041665;28;20060;-61
2022/06/29 05:58:20;;;;;;;3.90;3.60;;;24.20;58.30;;;;;;5041549;28;20107;-61
2022/06/29 06:00:48;;;;;;;9.00;3.75;;;24.10;58.20;;;;;;5033963;28;20045;-62
2022/06/29 06:03:17;;;;;;;5.53;4.50;;;24.00;58.30;;;;;;5038669;28;20206;-61
2022/06/29 06:05:45;;;;;;;8.97;3.13;;;23.90;58.30;;;;;;5039960;28;20448;-62
2022/06/29 06:08:15;;;;;;;3.50;3.30;;;23.80;58.60;;;;;;5035310;28;20056;-61
2022/06/29 06:10:42;;;;;;;3.40;3.10;;;23.80;58.80;;;;;;5039082;28;20110;-64
2022/06/29 06:13:10;;;;;;;4.22;3.88;;;23.70;58.80;;;;;;5040831;28;20048;-59
2022/06/29 06:15:38;;;;;;;4.85;3.50;;;23.60;59.30;;;;;;5039149;28;20107;-61
2022/06/29 06:18:05;;;;;;;5.15;4.50;;;23.60;59.50;;;;;;5044397;28;20515;-59
2022/06/29 06:20:33;;;;;;;5.03;4.20;;;23.50;59.80;;;;;;5041554;28;20052;-61
2022/06/29 06:23:00;;;;;;;6.32;4.60;;;23.50;59.80;;;;;;5040246;28;20136;-59
2022/06/29 06:25:30;;;;;;;3.83;3.63;;;23.50;59.80;;;;;;5042305;28;20040;-60
2022/06/29 06:27:57;;;;;;;4.93;4.35;;;23.50;59.70;;;;;;5042724;28;20091;-62
2022/06/29 06:30:25;;;;;;;4.85;4.03;;;23.50;60.00;;;;;;5039160;28;20740;-60
2022/06/29 06:32:53;;;;;;;7.30;4.35;;;23.50;60.30;;;;;;5022319;28;20070;-60
2022/06/29 06:35:20;;;;;;;7.72;4.53;;;23.50;60.20;;;;;;5043113;28;20456;-60
2022/06/29 06:37:48;;;;;;;6.20;4.95;;;23.50;60.50;;;;;;5038393;28;20098;-61
2022/06/29 06:43:03;;;;;;;6.05;5.55;;;23.60;61.30;;;;;;5037489;28;20550;-60
2022/06/29 06:45:31;;;;;;;5.40;4.90;;;23.60;61.90;;;;;;5037361;28;20049;-59
2022/06/29 06:47:58;;;;;;;6.97;5.32;;;23.60;61.80;;;;;;5039507;28;20069;-61
2022/06/29 06:50:25;;;;;;;6.93;4.90;;;23.60;61.90;;;;;;5042184;28;20079;-62
2022/06/29 06:52:52;;;;;;;6.05;5.18;;;23.60;61.90;;;;;;5039026;28;20155;-61
2022/06/29 06:55:20;;;;;;;7.85;5.10;;;23.60;62.00;;;;;;5038525;28;20490;-61
2022/06/29 06:57:47;;;;;;;12.07;6.45;;;23.60;62.30;;;;;;5041915;28;20049;-65
2022/06/29 07:00:15;;;;;;;6.03;5.38;;;23.60;62.80;;;;;;5036825;28;20040;-61
2022/06/29 07:02:42;;;;;;;5.65;5.00;;;23.70;63.00;;;;;;5039281;28;20037;-64
2022/06/29 07:05:09;;;;;;;12.38;6.35;;;23.70;63.60;;;;;;5037916;28;20502;-61
2022/06/29 07:07:37;;;;;;;6.43;5.50;;;23.70;63.40;;;;;;5035054;28;20053;-61
2022/06/29 07:10:05;;;;;;;5.65;5.13;;;23.80;63.50;;;;;;5039774;28;20049;-60
2022/06/29 07:12:32;;;;;;;9.88;5.68;;;23.80;63.40;;;;;;5038031;28;20049;-60
2022/06/29 07:15:00;;;;;;;5.25;4.72;;;23.80;63.10;;;;;;5035828;28;20053;-63
2022/06/29 07:17:27;;;;;;;5.05;4.47;;;23.80;63.10;;;;;;5042068;28;20504;-61
2022/06/29 07:19:55;;;;;;;5.18;4.55;;;23.80;63.30;;;;;;5031798;28;20126;-60
2022/06/29 07:22:22;;;;;;;5.35;4.85;;;23.80;63.00;;;;;;5039313;28;20159;-60
2022/06/29 07:24:50;;;;;;;4.88;4.45;;;23.80;63.00;;;;;;5038837;28;20037;-60
2022/06/29 07:27:17;;;;;;;6.00;4.78;;;23.80;62.70;;;;;;5032214;28;20061;-60
2022/06/29 07:29:44;;;;;;;6.22;4.70;;;23.80;62.60;;;;;;5067570;28;20045;-61
2022/06/29 07:32:12;;;;;;;4.95;4.35;;;23.80;62.70;;;;;;5033532;28;20048;-60
2022/06/29 07:34:39;;;;;;;5.80;5.03;;;23.90;62.50;;;;;;5063673;28;20100;-60
2022/06/29 07:37:07;;;;;;;4.80;4.40;;;23.90;62.40;;;;;;5035572;28;21269;-60
2022/06/29 07:39:34;;;;;;;4.97;4.45;;;23.90;62.10;;;;;;5040268;28;20067;-58
2022/06/29 07:42:11;;;;;;;6.15;4.70;;;23.90;62.20;;;;;;5034074;28;20045;-59
2022/06/29 07:44:38;;;;;;;5.88;4.65;;;23.80;62.00;;;;;;5034566;28;20044;-60
2022/06/29 07:47:06;;;;;;;4.57;4.18;;;23.90;62.00;;;;;;5041386;28;20291;-60
2022/06/29 07:49:33;;;;;;;4.97;4.45;;;23.80;62.00;;;;;;5037100;28;20052;-61
2022/06/29 07:52:00;;;;;;;4.95;4.55;;;23.80;61.90;;;;;;5031315;28;20041;-61
2022/06/29 07:54:28;;;;;;;5.75;4.00;;;23.90;61.80;;;;;;5035268;28;20045;-61
2022/06/29 07:56:56;;;;;;;4.32;3.95;;;23.80;61.60;;;;;;5037146;28;20098;-60
2022/06/29 07:59:43;;;;;;;4.63;4.25;;;23.80;61.90;;;;;;5032783;28;20171;-62
2022/06/29 08:02:11;;;;;;;3.92;3.60;;;23.80;62.00;;;;;;5039228;28;20453;-62
2022/06/29 08:04:39;;;;;;;4.78;4.28;;;23.80;62.00;;;;;;5036963;28;20059;-60
2022/06/29 08:07:26;;;;;;;4.15;3.80;;;23.80;61.90;;;;;;5035360;28;20037;-61
2022/06/29 08:09:53;;;;;;;4.68;3.83;;;23.70;62.20;;;;;;5041580;28;20048;-62
2022/06/29 08:12:20;;;;;;;3.58;3.38;;;23.70;62.00;;;;;;5039175;28;20053;-60
2022/06/29 08:14:48;;;;;;;4.60;3.88;;;23.70;62.10;;;;;;5040084;28;20087;-61
2022/06/29 08:17:15;;;;;;;5.55;4.20;;;23.80;62.30;;;;;;5036659;28;20489;-61
2022/06/29 08:19:43;;;;;;;5.22;3.45;;;23.70;62.20;;;;;;5043996;28;20049;-61
2022/06/29 08:22:10;;;;;;;4.82;3.78;;;23.80;62.00;;;;;;5038870;28;20049;-62
2022/06/29 08:24:37;;;;;;;3.90;3.58;;;23.80;62.20;;;;;;5039603;28;20120;-61
2022/06/29 08:27:05;;;;;;;5.85;3.95;;;23.80;62.40;;;;;;5038461;28;20262;-62
2022/06/29 08:29:53;;;;;;;4.30;3.75;;;23.80;62.20;;;;;;5041900;28;20203;-61
2022/06/29 08:32:20;;;;;;;4.85;3.38;;;23.80;62.00;;;;;;5036458;28;20049;-61
2022/06/29 08:34:47;;;;;;;3.80;3.38;;;23.80;62.10;;;;;;5035450;28;20110;-61
2022/06/29 08:37:16;;;;;;;3.70;3.40;;;23.80;62.00;;;;;;5034662;28;20091;-61
2022/06/29 08:39:43;;;;;;;4.00;3.00;;;23.80;61.80;;;;;;5036126;28;20050;-62
2022/06/29 08:42:11;;;;;;;5.00;3.67;;;23.80;61.80;;;;;;5035391;28;20080;-62
2022/06/29 08:44:39;;;;;;;3.35;3.10;;;23.80;61.90;;;;;;5040082;28;20114;-61
2022/06/29 08:47:11;;;;;;;3.70;3.40;;;23.80;61.70;;;;;;5032436;28;20084;-64
2022/06/29 08:49:39;;;;;;;3.65;2.78;;;23.70;61.60;;;;;;5036020;28;20091;-61
2022/06/29 08:52:08;;;;;;;4.43;2.97;;;23.80;61.60;;;;;;5036947;28;20497;-60
2022/06/29 08:54:43;;;;;;;3.13;2.92;;;23.80;61.60;;;;;;5067304;28;20048;-60
2022/06/29 08:57:11;;;;;;;3.33;3.13;;;23.80;61.50;;;;;;5035114;28;20136;-61
2022/06/29 08:59:38;;;;;;;3.28;2.97;;;23.80;61.60;;;;;;5037698;28;20060;-61
2022/06/29 09:02:26;;;;;;;2.88;2.67;;;23.80;61.70;;;;;;5039139;28;20041;-61
2022/06/29 09:04:54;;;;;;;3.13;2.92;;;23.80;61.50;;;;;;5039036;28;20049;-60
2022/06/29 09:07:25;;;;;;;2.80;2.67;;;23.80;61.50;;;;;;5044648;28;20049;-61
2022/06/29 09:10:08;;;;;;;3.25;3.05;;;23.80;61.30;;;;;;5038489;28;20889;-61
2022/06/29 09:12:36;;;;;;;3.50;3.03;;;23.80;61.20;;;;;;5041352;28;20068;-61
2022/06/29 09:15:07;;;;;;;2.72;2.53;;;23.80;61.30;;;;;;5042943;28;20204;-61
2022/06/29 09:17:36;;;;;;;2.97;2.78;;;23.80;61.30;;;;;;5038034;28;20080;-60
2022/06/29 09:20:04;;;;;;;2.65;2.55;;;23.80;61.40;;;;;;5039998;28;20077;-61
2022/06/29 09:22:54;;;;;;;3.40;3.08;;;23.80;61.30;;;;;;5044053;28;20045;-60
2022/06/29 09:25:26;;;;;;;3.33;3.13;;;23.80;61.40;;;;;;5078806;28;20045;-60
2022/06/29 09:32:04;;;;;;;2.65;2.45;;;23.90;61.00;;;;;;5050270;28;20075;-60
2022/06/29 09:34:45;;;;;;;3.15;2.85;;;23.80;61.10;;;;;;5038516;28;20048;-61
2022/06/29 09:37:15;;;;;;;3.08;2.70;;;23.90;61.50;;;;;;5043407;28;20119;-60
2022/06/29 09:39:47;;;;;;;3.00;2.80;;;23.90;60.90;;;;;;5039313;28;20078;-59
2022/06/29 09:42:20;;;;;;;2.67;2.58;;;23.90;60.60;;;;;;5042494;28;20103;-61
2022/06/29 09:44:49;;;;;;;2.78;2.60;;;23.80;60.70;;;;;;5042767;28;20481;-62
2022/06/29 09:47:19;;;;;;;5.15;3.75;;;23.80;60.50;;;;;;5036662;28;20057;-61
2022/06/29 09:49:54;;;;;;;3.92;3.63;;;23.80;60.40;;;;;;5039529;28;22037;-61
2022/06/29 09:52:22;;;;;;;3.55;3.30;;;23.90;60.40;;;;;;5042661;28;20053;-60
2022/06/29 09:54:54;;;;;;;3.25;2.95;;;23.80;60.20;;;;;;5046058;28;20053;-62
2022/06/29 09:57:28;;;;;;;3.13;2.70;;;23.80;60.20;;;;;;5038087;28;20057;-61
2022/06/29 10:02:54;;;;;;;2.92;2.60;;;23.90;60.10;;;;;;5041687;28;20506;-60
2022/06/29 10:05:25;;;;;;;2.90;2.67;;;23.90;60.00;;;;;;5034041;28;20461;-65
2022/06/29 10:07:55;;;;;;;3.50;3.10;;;23.90;59.80;;;;;;5046282;28;20056;-62
2022/06/29 10:10:24;;;;;;;2.63;2.42;;;23.90;60.50;;;;;;5045889;28;20060;-62
2022/06/29 10:16:41;;;;;;;3.75;2.70;;;23.90;60.80;;;;;;5040398;28;20048;-61
2022/06/29 10:19:42;;;;;;;4.82;2.80;;;23.90;60.70;;;;;;5038031;28;20048;-61
2022/06/29 10:22:09;;;;;;;3.83;2.67;;;23.90;59.90;;;;;;5048680;28;20044;-61
2022/06/29 10:24:37;;;;;;;2.80;2.60;;;23.90;59.50;;;;;;5041211;28;20072;-61
2022/06/29 10:27:07;;;;;;;3.00;2.47;;;23.90;59.50;;;;;;5044285;28;20135;-61
2022/06/29 10:29:35;;;;;;;2.58;2.47;;;23.90;59.40;;;;;;5043863;28;20051;-61
2022/06/29 10:32:06;;;;;;;3.90;2.28;;;23.80;59.70;;;;;;5040936;28;20118;-61
2022/06/29 10:34:38;;;;;;;3.08;2.78;;;23.90;59.20;;;;;;5046077;28;20778;-61
2022/06/29 10:37:11;;;;;;;2.65;2.45;;;23.80;59.00;;;;;;5043998;28;20076;-61
2022/06/29 10:39:56;;;;;;;2.72;2.53;;;23.80;59.10;;;;;;5041837;28;20052;-61
2022/06/29 10:45:32;;;;;;;4.32;3.00;;;23.80;58.80;;;;;;5040854;28;20056;-61
2022/06/29 10:48:13;;;;;;;3.03;2.83;;;23.80;58.80;;;;;;5041921;28;20049;-61
2022/06/29 10:50:42;;;;;;;2.75;2.42;;;23.70;58.80;;;;;;5040192;28;20049;-60
2022/06/29 10:53:16;;;;;;;2.42;2.33;;;23.70;58.70;;;;;;5040032;28;20076;-60
2022/06/29 10:55:49;;;;;;;2.92;2.72;;;23.70;58.90;;;;;;5042627;28;20267;-58
2022/06/29 10:58:17;;;;;;;2.63;2.53;;;23.70;59.00;;;;;;5039906;28;20065;-58
2022/06/29 11:00:47;;;;;;;2.50;2.30;;;23.70;59.00;;;;;;5036202;28;20056;-59
2022/06/29 11:03:25;;;;;;;2.45;2.28;;;23.60;59.20;;;;;;5039708;28;20135;-58
2022/06/29 11:17:39;;;;;;;2.60;2.40;;;23.70;59.70;;;;;;5041050;28;20088;-59
2022/06/29 11:19:53;;;;;;;2.30;2.20;;;23.60;59.80;;;;;;5037230;28;20067;-58
2022/06/29 11:22:21;;;;;;;2.22;2.13;;;23.70;59.90;;;;;;5032191;28;20143;-58
2022/06/29 11:24:57;;;;;;;2.55;2.38;;;23.70;60.00;;;;;;5037584;28;20048;-62
2022/06/29 11:27:31;;;;;;;2.95;2.75;;;23.80;60.10;;;;;;5040801;28;20528;-61
2022/06/29 11:29:59;;;;;;;2.28;2.17;;;23.70;60.10;;;;;;5040562;28;20040;-62
2022/06/29 11:32:40;;;;;;;2.53;2.33;;;23.80;60.30;;;;;;5040519;28;20080;-62
2022/06/29 11:35:09;;;;;;;2.75;2.55;;;23.80;60.30;;;;;;5040688;28;20095;-62
2022/06/29 11:37:54;;;;;;;2.83;2.55;;;23.80;60.30;;;;;;5044239;28;20045;-63
2022/06/29 11:40:35;;;;;;;2.45;2.35;;;23.80;60.20;;;;;;5040663;28;20061;-63
2022/06/29 11:43:11;;;;;;;2.20;2.10;;;23.90;60.10;;;;;;5035614;28;20045;-60
2022/06/29 11:45:45;;;;;;;2.15;2.05;;;23.90;60.20;;;;;;5042271;28;20048;-61
2022/06/29 11:48:28;;;;;;;2.45;2.33;;;23.90;60.20;;;;;;5034024;28;20042;-60
2022/06/29 11:50:59;;;;;;;2.47;2.28;;;23.90;60.30;;;;;;5044026;28;20488;-59
2022/06/29 11:53:52;;;;;;;2.33;2.13;;;24.00;60.20;;;;;;5046472;28;20094;-59
2022/06/29 11:56:23;;;;;;;2.17;2.08;;;24.00;60.20;;;;;;5043773;28;20057;-59
2022/06/29 11:58:55;;;;;;;2.72;2.42;;;24.00;60.00;;;;;;5040487;28;20129;-59
2022/06/29 12:01:25;;;;;;;2.45;2.20;;;24.10;59.90;;;;;;5036239;28;20057;-59
2022/06/29 12:03:58;;;;;;;3.65;2.40;;;24.00;59.80;;;;;;5043285;28;20049;-60
2022/06/29 12:06:28;;;;;;;2.25;2.13;;;24.00;59.70;;;;;;5044939;28;20132;-59
2022/06/29 12:08:57;;;;;;;2.20;2.10;;;24.00;59.70;;;;;;5042255;28;20057;-59
2022/06/29 12:11:24;;;;;;;3.22;2.67;;;23.90;59.70;;;;;;5043845;28;20049;-59
2022/06/29 12:13:51;;;;;;;2.40;2.20;;;23.90;59.90;;;;;;5040803;28;20068;-60
2022/06/29 12:16:19;;;;;;;2.20;2.10;;;23.90;59.90;;;;;;5048653;28;20059;-59
2022/06/29 12:18:46;;;;;;;2.28;2.03;;;23.90;60.00;;;;;;5042159;28;20041;-59
2022/06/29 12:21:14;;;;;;;2.00;1.90;;;24.00;60.00;;;;;;5044197;28;20119;-60
2022/06/29 12:23:41;;;;;;;3.03;2.83;;;24.00;60.00;;;;;;5044437;28;20098;-61
2022/06/29 12:26:09;;;;;;;2.55;2.35;;;24.00;60.00;;;;;;5040065;28;20497;-60
2022/06/29 12:28:38;;;;;;;2.58;2.38;;;24.00;59.90;;;;;;5049244;28;20446;-60
2022/06/29 12:31:06;;;;;;;2.60;2.40;;;24.00;59.80;;;;;;5038236;28;20045;-59
2022/06/29 12:33:34;;;;;;;2.28;2.17;;;24.00;59.60;;;;;;5040465;28;20220;-60
2022/06/29 12:36:01;;;;;;;2.58;2.05;;;24.00;59.50;;;;;;5041796;28;20037;-60
2022/06/29 12:38:29;;;;;;;2.10;2.00;;;24.00;59.40;;;;;;5048229;28;20495;-62
2022/06/29 12:40:56;;;;;;;2.30;2.20;;;23.90;59.30;;;;;;5040475;28;20053;-62
2022/06/29 12:43:23;;;;;;;2.35;2.15;;;23.90;59.30;;;;;;5045591;28;20386;-61
2022/06/29 12:45:50;;;;;;;2.40;2.30;;;23.90;59.30;;;;;;5042273;28;20106;-61
2022/06/29 12:48:18;;;;;;;2.38;2.28;;;23.90;59.30;;;;;;5044463;28;20397;-61
2022/06/29 12:50:45;;;;;;;2.35;2.17;;;23.90;59.30;;;;;;5044838;28;20651;-62
2022/06/29 12:53:12;;;;;;;2.10;2.00;;;23.90;59.20;;;;;;5040713;28;20238;-61
2022/06/29 12:55:39;;;;;;;1.95;1.85;;;23.80;59.20;;;;;;5042841;28;20049;-62
2022/06/29 13:01:48;;;;;;;1.92;1.83;;;23.80;59.20;;;;;;5045314;28;20032;-63
2022/06/29 13:04:15;;;;;;;2.20;2.10;;;23.80;59.30;;;;;;5044574;28;20544;-62
2022/06/29 13:06:43;;;;;;;2.30;2.20;;;23.80;59.30;;;;;;5040220;28;20045;-63
2022/06/29 13:09:10;;;;;;;3.38;1.88;;;23.70;59.50;;;;;;5045642;28;20052;-61
2022/06/29 13:11:38;;;;;;;2.47;2.28;;;23.80;59.70;;;;;;5042869;28;20048;-62
2022/06/29 13:14:05;;;;;;;2.35;2.10;;;23.80;59.60;;;;;;5048167;28;20044;-63
2022/06/29 13:16:32;;;;;;;1.90;1.80;;;23.80;59.40;;;;;;5046402;28;20057;-63
2022/06/29 13:19:00;;;;;;;2.53;2.33;;;23.80;59.40;;;;;;5041877;28;20120;-62
2022/06/29 13:21:27;;;;;;;2.50;2.30;;;23.80;59.80;;;;;;5049812;28;20053;-63
2022/06/29 13:23:55;;;;;;;2.55;2.35;;;23.80;59.80;;;;;;5042285;28;20148;-63
2022/06/29 13:26:22;;;;;;;2.30;2.17;;;23.90;59.80;;;;;;5044827;28;20098;-61
2022/06/29 13:28:49;;;;;;;2.00;1.90;;;23.80;59.70;;;;;;5040941;28;20111;-63
2022/06/29 13:31:17;;;;;;;2.10;2.00;;;23.90;59.70;;;;;;5046345;28;20141;-62
2022/06/29 13:33:44;;;;;;;2.40;2.30;;;23.90;59.80;;;;;;5046734;28;20122;-62